KCSM/CSM METAR and TAF weather

Enter ICAO airport designator
Station Type Date Time Source
KCSM METAR 2021/07/28 18:53 UTC NOAA

KCSM 281853Z 17008KT 10SM FEW060 35/18 A3009 RMK AO2 SLP160 T03500183 $


Station Type Date Time Source
KCSM Decoded METAR 2021/07/28 18:53 UTC NOAA

CLINTON-SHERMAN AIRPORT, OK, United States (KCSM) 35-21E 99-12W 588M
Jul 28, 2021 - 02:53 PM EDT / 2021.07.28 1853 UTC
Wind: from the S (170 degrees) at 9 MPH (8 KT):0
Visibility: 10 mile(s):0
Sky conditions: mostly clear
Temperature: 95.0 F (35.0 C)
Heat index: 97.5 F (36.4 C):1
Dew Point: 64.9 F (18.3 C)
Relative Humidity: 37%
Pressure (altimeter): 30.09 in. Hg (1018 hPa)
ob: KCSM 281853Z 17008KT 10SM FEW060 35/18 A3009 RMK AO2 SLP160 T03500183
cycle: 19

Station Type Date Time Source
KCSM TAF 2021/07/28 18:22 UTC NOAA

TAF KCSM 281720Z 2818/2918 15009KT P6SM FEW250
FM291400 19004KT P6SM SKC

Example: see airport list